Metar z pełnej godziny Komunikat METAR ze strony awiacja.imgw.pl Metar G00 EPKK METAR EPKK 292000Z 32008KT CAVOK 12/02 Q1020 =